createdAt,value
2019-04-11T00:00:09.016Z,3.28
2019-04-11T00:05:08.867Z,3.15
2019-04-11T00:10:06.356Z,3.02
2019-04-11T00:15:06.677Z,2.87
2019-04-11T00:20:07.543Z,2.75
2019-04-11T00:25:09.462Z,2.69
2019-04-11T00:30:10.040Z,2.58
2019-04-11T00:35:07.094Z,2.5
2019-04-11T00:40:08.936Z,2.42
2019-04-11T00:45:07.547Z,2.36
2019-04-11T00:50:10.681Z,2.32
2019-04-11T00:55:08.508Z,2.28
2019-04-11T01:00:07.154Z,2.21
2019-04-11T01:05:03.543Z,2.16
2019-04-11T01:10:07.320Z,2.06
2019-04-11T01:15:05.146Z,1.95
2019-04-11T01:20:08.090Z,1.87
2019-04-11T01:25:06.309Z,1.76
2019-04-11T01:30:04.015Z,1.75
2019-04-11T01:35:04.922Z,1.66
2019-04-11T01:40:05.506Z,1.65
2019-04-11T01:45:05.321Z,1.56
2019-04-11T01:50:05.958Z,1.56
2019-04-11T01:55:06.752Z,1.52
2019-04-11T02:00:06.615Z,1.45
2019-04-11T02:05:05.387Z,1.34
2019-04-11T02:10:08.515Z,1.31
2019-04-11T02:15:08.245Z,1.27
2019-04-11T02:20:10.049Z,1.21
2019-04-11T02:25:09.290Z,1.2
2019-04-11T02:30:08.743Z,1.12
2019-04-11T02:35:10.717Z,1.11
2019-04-11T02:40:11.130Z,1.08
2019-04-11T02:45:19.493Z,1.04
2019-04-11T02:50:10.970Z,0.96
2019-04-11T02:55:12.928Z,0.91
2019-04-11T03:00:11.004Z,0.84
2019-04-11T03:05:13.577Z,0.8
2019-04-11T03:10:05.031Z,0.75
2019-04-11T03:15:14.160Z,0.69
2019-04-11T03:20:26.262Z,0.67
2019-04-11T03:25:09.476Z,0.63
2019-04-11T03:30:16.077Z,0.54
2019-04-11T03:40:25.605Z,0.48
2019-04-11T03:45:25.220Z,0.38
2019-04-11T03:50:09.239Z,0.35
2019-04-11T03:55:06.851Z,0.3
2019-04-11T04:00:07.168Z,0.22
2019-04-11T04:05:11.029Z,0.29
2019-04-11T04:10:11.419Z,0.22
2019-04-11T04:15:11.253Z,0.18
2019-04-11T04:20:08.751Z,0.15
2019-04-11T04:25:08.360Z,0.13
2019-04-11T04:30:08.399Z,0.1
2019-04-11T04:35:11.295Z,0.04
2019-04-11T04:40:23.213Z,0.02
2019-04-11T04:45:07.499Z,-0.08
2019-04-11T04:50:08.763Z,-0.14
2019-04-11T04:55:08.373Z,-0.15
2019-04-11T05:00:09.176Z,-0.14
2019-04-11T05:05:09.518Z,-0.1
2019-04-11T05:10:07.092Z,-0.08
2019-04-11T05:15:06.245Z,-0
2019-04-11T05:20:09.150Z,0.06
2019-04-11T05:25:10.607Z,0.1
2019-04-11T05:30:09.319Z,0.17
2019-04-11T05:35:11.046Z,0.18
2019-04-11T05:40:05.183Z,0.27
2019-04-11T05:45:08.475Z,0.39
2019-04-11T05:50:09.117Z,0.45
2019-04-11T05:55:11.549Z,0.59
2019-04-11T06:00:09.750Z,0.75
2019-04-11T06:05:11.034Z,0.91
2019-04-11T06:10:08.346Z,1.13
2019-04-11T06:15:09.905Z,1.5
2019-04-11T06:20:11.111Z,1.76
2019-04-11T06:25:11.748Z,2.27
2019-04-11T06:30:05.655Z,2.52
2019-04-11T06:35:08.587Z,2.82
2019-04-11T06:40:12.056Z,3.45
2019-04-11T06:45:09.237Z,3.6
2019-04-11T06:50:10.969Z,4.24
2019-04-11T06:55:10.834Z,4.63
2019-04-11T07:00:09.181Z,4.94
2019-04-11T07:05:10.739Z,4.98
2019-04-11T07:10:09.491Z,5.05
2019-04-11T07:15:07.290Z,5.35
2019-04-11T07:20:06.601Z,5.38
2019-04-11T07:25:06.034Z,5.76
2019-04-11T07:30:05.226Z,5.75
2019-04-11T07:35:05.233Z,5.79
2019-04-11T07:40:05.799Z,6.1
2019-04-11T07:45:11.281Z,6.52
2019-04-11T07:50:10.161Z,6.45
2019-04-11T07:55:09.215Z,6.88
2019-04-11T08:00:06.034Z,7.13
2019-04-11T08:05:08.787Z,7.39
2019-04-11T08:10:10.282Z,8.15
2019-04-11T08:15:09.002Z,8.06
2019-04-11T08:20:10.372Z,8.01
2019-04-11T08:25:09.103Z,8.63
2019-04-11T08:30:08.688Z,8.57
2019-04-11T08:35:08.156Z,8.53
2019-04-11T08:40:09.378Z,8.22
2019-04-11T08:45:08.124Z,8.56
2019-04-11T08:50:10.248Z,7.97
2019-04-11T08:55:10.324Z,8.15
2019-04-11T09:00:04.666Z,8.31
2019-04-11T09:05:11.876Z,8.13
2019-04-11T09:10:05.086Z,8.72
2019-04-11T09:15:08.609Z,8.34
2019-04-11T09:20:08.112Z,8.76
2019-04-11T09:25:07.377Z,8.56
2019-04-11T09:30:11.652Z,8.39
2019-04-11T09:35:08.300Z,7.99
2019-04-11T09:40:09.817Z,8.27
2019-04-11T09:45:08.923Z,8.5
2019-04-11T09:50:10.512Z,8.63
2019-04-11T09:55:07.102Z,8.79
2019-04-11T10:00:05.899Z,9.01
2019-04-11T10:05:09.550Z,9.01
2019-04-11T10:10:06.557Z,9.18
2019-04-11T10:15:09.317Z,9.25
2019-04-11T10:20:10.658Z,9.08
2019-04-11T10:25:12.784Z,9.4
2019-04-11T10:30:04.585Z,9.21
2019-04-11T10:35:08.643Z,9.24
2019-04-11T10:40:08.081Z,9.16
2019-04-11T10:45:06.786Z,9.52
2019-04-11T10:50:07.550Z,9.55
2019-04-11T10:55:07.897Z,9.83
2019-04-11T11:00:07.168Z,9.66
2019-04-11T11:05:05.670Z,9.86
2019-04-11T11:10:04.055Z,9.68
2019-04-11T11:15:04.141Z,9.67
2019-04-11T11:20:11.575Z,9.35
2019-04-11T11:25:04.541Z,9.81
2019-04-11T11:30:06.116Z,9.76
2019-04-11T11:35:07.770Z,9.64
2019-04-11T11:40:11.785Z,9.96
2019-04-11T11:45:07.391Z,9.75
2019-04-11T11:50:14.137Z,9.78
2019-04-11T11:55:06.249Z,10.07
2019-04-11T12:00:07.074Z,9.9
2019-04-11T12:05:12.507Z,9.95
2019-04-11T12:10:11.325Z,10.01
2019-04-11T12:15:07.766Z,10.28
2019-04-11T12:20:12.646Z,10.11
2019-04-11T12:25:07.308Z,10.1
2019-04-11T12:30:09.363Z,10.11
2019-04-11T12:35:09.975Z,10.09
2019-04-11T12:40:06.423Z,10.39
2019-04-11T12:45:08.642Z,10.62
2019-04-11T12:50:10.165Z,10.7
2019-04-11T12:55:08.762Z,10.66
2019-04-11T13:00:08.543Z,10.62
2019-04-11T13:05:06.905Z,10.24
2019-04-11T13:10:09.764Z,10.85
2019-04-11T13:15:07.164Z,10.81
2019-04-11T13:20:06.728Z,10.68
2019-04-11T13:25:06.760Z,11.08
2019-04-11T13:30:07.087Z,10.86
2019-04-11T13:35:08.002Z,10.97
2019-04-11T13:40:07.669Z,10.98
2019-04-11T13:45:10.136Z,11.14
2019-04-11T13:50:16.073Z,11.09
2019-04-11T13:55:04.943Z,11.37
2019-04-11T14:00:04.253Z,11.3
2019-04-11T14:05:04.326Z,11.26
2019-04-11T14:10:11.387Z,11.37
2019-04-11T14:15:06.895Z,11.05
2019-04-11T14:20:08.745Z,11.07
2019-04-11T14:25:07.277Z,11.25
2019-04-11T14:30:07.476Z,11.15
2019-04-11T14:35:06.691Z,11.26
2019-04-11T14:40:10.589Z,11.57
2019-04-11T14:45:08.644Z,11.48
2019-04-11T14:50:08.713Z,11.41
2019-04-11T14:55:08.737Z,11.62
2019-04-11T15:00:06.519Z,11.45
2019-04-11T15:05:07.311Z,11.31
2019-04-11T15:10:06.213Z,11.75
2019-04-11T15:15:07.176Z,11.47
2019-04-11T15:20:07.043Z,11.57
2019-04-11T15:25:08.792Z,11.76
2019-04-11T15:30:08.095Z,11.81
2019-04-11T15:35:06.211Z,11.75
2019-04-11T15:40:08.363Z,11.68
2019-04-11T15:45:08.221Z,11.49
2019-04-11T15:50:07.497Z,11.54
2019-04-11T15:55:05.336Z,11.49
2019-04-11T16:00:05.290Z,11.62
2019-04-11T16:05:05.359Z,11.6
2019-04-11T16:10:04.687Z,11.34
2019-04-11T16:15:04.546Z,11.27
2019-04-11T16:20:04.178Z,11.29
2019-04-11T16:25:08.713Z,11.16
2019-04-11T16:30:10.139Z,11.31
2019-04-11T16:35:06.730Z,11.34
2019-04-11T16:40:08.594Z,11.37
2019-04-11T16:45:08.160Z,11.18
2019-04-11T16:50:06.779Z,10.98
2019-04-11T16:55:09.987Z,10.51
2019-04-11T17:00:09.097Z,10.31
2019-04-11T17:05:08.827Z,10.22
2019-04-11T17:10:08.011Z,10.09
2019-04-11T17:15:06.679Z,10.07
2019-04-11T17:20:06.677Z,10.03
2019-04-11T17:25:07.600Z,9.86
2019-04-11T17:30:06.581Z,9.79
2019-04-11T17:35:06.942Z,9.74
2019-04-11T17:40:06.896Z,9.62
2019-04-11T17:45:08.330Z,9.53
2019-04-11T17:50:09.888Z,9.44
2019-04-11T17:55:07.211Z,9.38
2019-04-11T18:00:08.185Z,9.21
2019-04-11T18:05:05.007Z,9.14
2019-04-11T18:10:03.653Z,8.93
2019-04-11T18:15:10.596Z,8.87
2019-04-11T18:20:08.039Z,8.68
2019-04-11T18:25:07.154Z,8.57
2019-04-11T18:30:06.858Z,8.44
2019-04-11T18:35:08.348Z,8.39
2019-04-11T18:40:10.061Z,8.35
2019-04-11T18:45:05.107Z,8.28
2019-04-11T18:50:08.420Z,8.13
2019-04-11T18:55:05.733Z,8.11
2019-04-11T19:00:08.087Z,7.91
2019-04-11T19:05:10.815Z,7.87
2019-04-11T19:10:03.886Z,7.76
2019-04-11T19:15:06.566Z,7.68
2019-04-11T19:20:07.995Z,7.53
2019-04-11T19:25:11.751Z,7.39
2019-04-11T19:30:08.756Z,7.22
2019-04-11T19:35:07.294Z,7.16
2019-04-11T19:40:09.926Z,7.12
2019-04-11T19:45:06.192Z,6.89
2019-04-11T19:50:04.421Z,6.86
2019-04-11T19:55:06.731Z,6.73
2019-04-11T20:00:08.881Z,6.64
2019-04-11T20:05:06.838Z,6.58
2019-04-11T20:10:06.235Z,6.55
2019-04-11T20:15:05.038Z,6.39
2019-04-11T20:20:06.995Z,6.3
2019-04-11T20:25:05.019Z,6.19
2019-04-11T20:30:08.332Z,6.11
2019-04-11T20:35:08.995Z,5.99
2019-04-11T20:40:07.757Z,5.9
2019-04-11T20:45:06.106Z,5.8
2019-04-11T20:50:07.524Z,5.64
2019-04-11T20:55:09.163Z,5.49
2019-04-11T21:00:07.286Z,5.4
2019-04-11T21:05:06.410Z,5.33
2019-04-11T21:10:10.588Z,5.21
2019-04-11T21:15:08.636Z,5.17
2019-04-11T21:20:08.643Z,5.12
2019-04-11T21:25:07.460Z,5.01
2019-04-11T21:30:08.525Z,4.91
2019-04-11T21:35:09.640Z,4.67
2019-04-11T21:40:07.845Z,4.52
2019-04-11T21:45:08.034Z,4.36
2019-04-11T21:50:10.304Z,4.24
2019-04-11T21:55:07.151Z,4.15
2019-04-11T22:00:09.128Z,4.18
2019-04-11T22:05:09.189Z,4.05
2019-04-11T22:10:07.112Z,4.18
2019-04-11T22:15:11.683Z,4.32
2019-04-11T22:20:08.993Z,4.32
2019-04-11T22:25:04.533Z,4.23
2019-04-11T22:30:03.893Z,3.99
2019-04-11T22:35:03.399Z,4.15
2019-04-11T22:40:04.452Z,4.18
2019-04-11T22:45:05.837Z,4.39
2019-04-11T22:50:09.787Z,4.49
2019-04-11T22:55:05.750Z,4.6
2019-04-11T23:00:03.177Z,4.53
2019-04-11T23:05:05.220Z,4.54
2019-04-11T23:10:01.560Z,4.56
2019-04-11T23:15:15.050Z,4.48
2019-04-11T23:20:04.639Z,4.35
2019-04-11T23:25:06.570Z,4.24
2019-04-11T23:30:04.405Z,4.16
2019-04-11T23:35:06.486Z,4.15
2019-04-11T23:40:03.909Z,4.07
2019-04-11T23:45:02.713Z,4.04
2019-04-11T23:50:04.027Z,4.02
2019-04-11T23:55:04.246Z,4.01
